Terminal Aerodrome Forecast
Issued by NWS Newport/Morehead City, NC

Home | Current Version | Previous Version | Text Only | Print | Product List | Glossary Off
Versions: 1 2 3 4 5 6 7 8 9 10 11 12 13 14 15

855
FTUS42 KMHX 172331
TAFEWN
TAF
KEWN 172331Z 1800/1824 20005KT P6SM OVC250
     FM180400 VRB03KT P6SM VCTS OVC050CB=

USA.gov is the U.S. government's official web portal to all federal, state and local government web resources and services.